Terminal Aerodrome Forecast
Issued by NWS

Home | Current Version | Previous Version | Text Only | Print | Product List | Glossary On
Versions: 1 2 3 4 5 6 7 8 9 10 11 12 13 14 15 16 17 18 19 20 21 22 23 24 25 26 27 28 29 30 31 32 33 34 35 36 37 38 39 40 41 42
000
FTUS43 KGRB 072320
TAFRHI
TAF
KRHI 072320Z 0800/0824 26014G23KT P6SM -SN BKN022
     FM080500 27011G19KT 4SM -SN BKN021
      TEMPO 0809/0813 2SM -SN BKN018
     FM081300 32012G20KT 1 1/2SM -SN OVC015=

USA.gov is the U.S. government's official web portal to all federal, state and local government web resources and services.